CHH7310 ZGSZ-ZJSY
Flight info
| Callsign | CHH7310 |
|---|---|
| Flight time | 1h 27m |
| Altitude | 25600 |
| Route | TOMUD R200 BIGRO G221 UPRIS |
| Aircraft | A321/M-SDE2E3FGILRWXY/LB1D1 |
Departure
| Time | 2026-04-28 07:58 |
|---|---|
| Airport | Shenzhen Bao'an International Airport (ZGSZ) |
Arrival
| Time | 2026-04-28 09:25 |
|---|---|
| Airport | Sanya Phoenix International Airport (ZJSY) |
| Time | Latitude | Longitude | Altitude | Speed | Heading |
|---|---|---|---|---|---|
| 2026-04-28 07:27 | 22.63608 | 113.80330 | 5 ft | 0 kts | 153° |
| 2026-04-28 07:35 | 22.63616 | 113.80325 | 4 ft | 2 kts | 153° |
| 2026-04-28 07:36 | 22.63630 | 113.80318 | 4 ft | 2 kts | 153° |
| 2026-04-28 07:36 | 22.63643 | 113.80311 | 4 ft | 2 kts | 153° |
| 2026-04-28 07:36 | 22.63656 | 113.80303 | 4 ft | 2 kts | 153° |
| 2026-04-28 07:36 | 22.63670 | 113.80296 | 5 ft | 2 kts | 153° |
| 2026-04-28 07:37 | 22.63684 | 113.80289 | 5 ft | 2 kts | 165° |
| 2026-04-28 07:37 | 22.63699 | 113.80287 | 5 ft | 2 kts | 181° |
| 2026-04-28 07:37 | 22.63714 | 113.80289 | 5 ft | 2 kts | 198° |
| 2026-04-28 07:37 | 22.63727 | 113.80296 | 5 ft | 2 kts | 214° |
| 2026-04-28 07:38 | 22.63739 | 113.80306 | 5 ft | 2 kts | 230° |
| 2026-04-28 07:38 | 22.63745 | 113.80316 | 5 ft | 0 kts | 242° |
| 2026-04-28 07:38 | 22.63748 | 113.80323 | 4 ft | 0 kts | 244° |
| 2026-04-28 07:40 | 22.63748 | 113.80322 | 4 ft | 1 kts | 244° |
| 2026-04-28 07:41 | 22.63727 | 113.80277 | 4 ft | 8 kts | 243° |
| 2026-04-28 07:41 | 22.63699 | 113.80219 | 4 ft | 9 kts | 242° |
| 2026-04-28 07:41 | 22.63668 | 113.80157 | 4 ft | 10 kts | 241° |
| 2026-04-28 07:41 | 22.63634 | 113.80091 | 4 ft | 10 kts | 241° |
| 2026-04-28 07:42 | 22.63601 | 113.80019 | 4 ft | 11 kts | 246° |
| 2026-04-28 07:42 | 22.63567 | 113.79942 | 4 ft | 12 kts | 243° |
| 2026-04-28 07:42 | 22.63530 | 113.79862 | 4 ft | 12 kts | 243° |
| 2026-04-28 07:42 | 22.63514 | 113.79777 | 4 ft | 12 kts | 298° |
| 2026-04-28 07:43 | 22.63586 | 113.79724 | 4 ft | 13 kts | 332° |
| 2026-04-28 07:43 | 22.63669 | 113.79677 | 4 ft | 14 kts | 332° |
| 2026-04-28 07:43 | 22.63757 | 113.79630 | 4 ft | 14 kts | 334° |
| 2026-04-28 07:43 | 22.63848 | 113.79581 | 4 ft | 15 kts | 332° |
| 2026-04-28 07:44 | 22.63941 | 113.79528 | 4 ft | 15 kts | 332° |
| 2026-04-28 07:44 | 22.64037 | 113.79475 | 4 ft | 16 kts | 333° |
| 2026-04-28 07:44 | 22.64136 | 113.79420 | 4 ft | 16 kts | 334° |
| 2026-04-28 07:44 | 22.64239 | 113.79367 | 4 ft | 16 kts | 335° |
| 2026-04-28 07:45 | 22.64342 | 113.79312 | 4 ft | 17 kts | 333° |
| 2026-04-28 07:45 | 22.64446 | 113.79252 | 4 ft | 17 kts | 332° |
| 2026-04-28 07:45 | 22.64553 | 113.79194 | 4 ft | 17 kts | 333° |
| 2026-04-28 07:45 | 22.64661 | 113.79134 | 4 ft | 17 kts | 332° |
| 2026-04-28 07:46 | 22.64769 | 113.79073 | 4 ft | 18 kts | 334° |
| 2026-04-28 07:46 | 22.64880 | 113.79015 | 4 ft | 18 kts | 333° |
| 2026-04-28 07:46 | 22.64990 | 113.78953 | 4 ft | 18 kts | 332° |
| 2026-04-28 07:46 | 22.65099 | 113.78893 | 4 ft | 15 kts | 333° |
| 2026-04-28 07:47 | 22.65196 | 113.78840 | 4 ft | 16 kts | 333° |
| 2026-04-28 07:47 | 22.65273 | 113.78798 | 4 ft | 11 kts | 333° |
| 2026-04-28 07:47 | 22.65339 | 113.78761 | 4 ft | 9 kts | 333° |
| 2026-04-28 07:47 | 22.65400 | 113.78728 | 4 ft | 10 kts | 333° |
| 2026-04-28 07:48 | 22.65468 | 113.78692 | 3 ft | 11 kts | 332° |
| 2026-04-28 07:48 | 22.65495 | 113.78626 | 3 ft | 2 kts | 251° |
| 2026-04-28 07:48 | 22.65489 | 113.78610 | 3 ft | 0 kts | 248° |
| 2026-04-28 07:56 | 22.65487 | 113.78604 | 3 ft | 6 kts | 248° |
| 2026-04-28 07:56 | 22.65431 | 113.78513 | 3 ft | 13 kts | 200° |
| 2026-04-28 07:57 | 22.65349 | 113.78539 | 3 ft | 13 kts | 153° |
| 2026-04-28 07:57 | 22.65209 | 113.78615 | 3 ft | 55 kts | 153° |
| 2026-04-28 07:57 | 22.64591 | 113.78957 | 4 ft | 141 kts | 153° |
| 2026-04-28 07:57 | 22.63574 | 113.79508 | 405 ft | 175 kts | 154° |
| 2026-04-28 07:58 | 22.62378 | 113.79939 | 684 ft | 194 kts | 178° |
| 2026-04-28 07:58 | 22.60987 | 113.79662 | 1042 ft | 214 kts | 194° |
| 2026-04-28 07:58 | 22.59519 | 113.79189 | 1555 ft | 226 kts | 195° |
| 2026-04-28 07:58 | 22.58008 | 113.78698 | 2210 ft | 229 kts | 195° |
| 2026-04-28 07:59 | 22.56474 | 113.78213 | 2620 ft | 231 kts | 195° |
| 2026-04-28 07:59 | 22.54934 | 113.77735 | 2810 ft | 230 kts | 195° |
| 2026-04-28 07:59 | 22.53364 | 113.77252 | 3150 ft | 237 kts | 194° |
| 2026-04-28 07:59 | 22.51789 | 113.76773 | 3966 ft | 236 kts | 195° |
| 2026-04-28 08:00 | 22.50228 | 113.76291 | 4770 ft | 236 kts | 198° |
| 2026-04-28 08:00 | 22.48827 | 113.75394 | 5481 ft | 241 kts | 225° |
| 2026-04-28 08:00 | 22.47983 | 113.73852 | 6239 ft | 246 kts | 252° |
| 2026-04-28 08:00 | 22.47750 | 113.72031 | 6978 ft | 249 kts | 263° |
| 2026-04-28 08:01 | 22.47631 | 113.70169 | 7694 ft | 251 kts | 264° |
| 2026-04-28 08:01 | 22.47510 | 113.68272 | 8323 ft | 257 kts | 264° |
| 2026-04-28 08:01 | 22.47376 | 113.66308 | 8725 ft | 271 kts | 264° |
| 2026-04-28 08:01 | 22.47231 | 113.64260 | 9291 ft | 277 kts | 264° |
| 2026-04-28 08:02 | 22.47083 | 113.62198 | 10005 ft | 278 kts | 264° |
| 2026-04-28 08:02 | 22.46856 | 113.60137 | 10699 ft | 279 kts | 255° |
| 2026-04-28 08:02 | 22.46010 | 113.58270 | 11330 ft | 282 kts | 233° |
| 2026-04-28 08:02 | 22.44612 | 113.56796 | 11970 ft | 284 kts | 223° |
| 2026-04-28 08:03 | 22.43090 | 113.55398 | 12565 ft | 288 kts | 222° |
| 2026-04-28 08:03 | 22.41563 | 113.54000 | 13185 ft | 291 kts | 223° |
| 2026-04-28 08:03 | 22.40020 | 113.52581 | 13758 ft | 294 kts | 223° |
| 2026-04-28 08:03 | 22.38398 | 113.51242 | 14329 ft | 298 kts | 214° |
| 2026-04-28 08:04 | 22.36515 | 113.50288 | 14892 ft | 303 kts | 201° |
| 2026-04-28 08:04 | 22.34465 | 113.49703 | 15439 ft | 307 kts | 197° |
| 2026-04-28 08:04 | 22.32407 | 113.49202 | 15951 ft | 310 kts | 196° |
| 2026-04-28 08:04 | 22.30243 | 113.48686 | 16480 ft | 313 kts | 196° |
| 2026-04-28 08:05 | 22.28113 | 113.48173 | 16972 ft | 316 kts | 196° |
| 2026-04-28 08:05 | 22.25960 | 113.47650 | 17457 ft | 319 kts | 196° |
| 2026-04-28 08:05 | 22.23844 | 113.46981 | 17931 ft | 317 kts | 209° |
| 2026-04-28 08:05 | 22.22104 | 113.45579 | 18402 ft | 313 kts | 231° |
| 2026-04-28 08:06 | 22.20985 | 113.43598 | 18880 ft | 313 kts | 248° |
| 2026-04-28 08:06 | 22.20180 | 113.41419 | 19320 ft | 316 kts | 249° |
| 2026-04-28 08:06 | 22.19372 | 113.39193 | 19728 ft | 320 kts | 249° |
| 2026-04-28 08:06 | 22.18558 | 113.36965 | 20175 ft | 322 kts | 249° |
| 2026-04-28 08:07 | 22.17732 | 113.34723 | 20594 ft | 326 kts | 249° |
| 2026-04-28 08:07 | 22.16886 | 113.32421 | 20790 ft | 337 kts | 249° |
| 2026-04-28 08:07 | 22.16012 | 113.30049 | 20981 ft | 347 kts | 249° |
| 2026-04-28 08:07 | 22.15111 | 113.27612 | 21222 ft | 355 kts | 249° |
| 2026-04-28 08:08 | 22.14193 | 113.25135 | 21583 ft | 359 kts | 249° |
| 2026-04-28 08:08 | 22.13203 | 113.22649 | 21999 ft | 361 kts | 246° |
| 2026-04-28 08:08 | 22.12184 | 113.20182 | 22412 ft | 363 kts | 246° |
| 2026-04-28 08:08 | 22.11155 | 113.17708 | 22827 ft | 365 kts | 246° |
| 2026-04-28 08:09 | 22.10119 | 113.15218 | 23244 ft | 366 kts | 246° |
| 2026-04-28 08:09 | 22.09078 | 113.12722 | 23659 ft | 368 kts | 247° |
| 2026-04-28 08:09 | 22.08032 | 113.10213 | 24076 ft | 369 kts | 247° |
| 2026-04-28 08:09 | 22.06983 | 113.07699 | 24476 ft | 371 kts | 247° |
| 2026-04-28 08:10 | 22.05921 | 113.05151 | 24877 ft | 372 kts | 247° |
| 2026-04-28 08:10 | 22.04862 | 113.02612 | 25243 ft | 374 kts | 248° |
| 2026-04-28 08:10 | 22.03799 | 113.00062 | 25367 ft | 375 kts | 248° |
| 2026-04-28 08:10 | 22.02776 | 112.97488 | 25365 ft | 374 kts | 249° |
| 2026-04-28 08:11 | 22.01779 | 112.94907 | 25369 ft | 374 kts | 249° |
| 2026-04-28 08:11 | 22.00782 | 112.92325 | 25376 ft | 374 kts | 249° |
| 2026-04-28 08:11 | 21.99774 | 112.89729 | 25381 ft | 374 kts | 249° |
| 2026-04-28 08:11 | 21.98771 | 112.87150 | 25383 ft | 374 kts | 249° |
| 2026-04-28 08:12 | 21.97767 | 112.84578 | 25386 ft | 373 kts | 249° |
| 2026-04-28 08:12 | 21.96764 | 112.82007 | 25390 ft | 374 kts | 249° |
| 2026-04-28 08:12 | 21.95745 | 112.79447 | 25390 ft | 373 kts | 248° |
| 2026-04-28 08:12 | 21.94716 | 112.76893 | 25388 ft | 373 kts | 248° |
| 2026-04-28 08:13 | 21.93686 | 112.74341 | 25391 ft | 373 kts | 248° |
| 2026-04-28 08:13 | 21.92655 | 112.71789 | 25390 ft | 373 kts | 248° |
| 2026-04-28 08:13 | 21.91617 | 112.69223 | 25391 ft | 372 kts | 248° |
| 2026-04-28 08:13 | 21.90588 | 112.66675 | 25389 ft | 373 kts | 248° |
| 2026-04-28 08:14 | 21.89553 | 112.64122 | 25386 ft | 373 kts | 248° |
| 2026-04-28 08:14 | 21.88513 | 112.61582 | 25386 ft | 373 kts | 248° |
| 2026-04-28 08:14 | 21.87473 | 112.59036 | 25383 ft | 373 kts | 248° |
| 2026-04-28 08:14 | 21.86435 | 112.56487 | 25382 ft | 373 kts | 248° |
| 2026-04-28 08:15 | 21.85402 | 112.53932 | 25377 ft | 373 kts | 249° |
| 2026-04-28 08:15 | 21.84376 | 112.51354 | 25375 ft | 372 kts | 249° |
| 2026-04-28 08:15 | 21.83365 | 112.48799 | 25376 ft | 372 kts | 249° |
| 2026-04-28 08:15 | 21.82354 | 112.46248 | 25374 ft | 372 kts | 249° |
| 2026-04-28 08:16 | 21.81345 | 112.43703 | 25371 ft | 372 kts | 249° |
| 2026-04-28 08:16 | 21.80331 | 112.41149 | 25369 ft | 372 kts | 249° |
| 2026-04-28 08:16 | 21.79319 | 112.38598 | 25368 ft | 372 kts | 249° |
| 2026-04-28 08:16 | 21.78309 | 112.36053 | 25374 ft | 372 kts | 249° |
| 2026-04-28 08:17 | 21.77290 | 112.33485 | 25372 ft | 372 kts | 248° |
| 2026-04-28 08:17 | 21.76282 | 112.30940 | 25367 ft | 371 kts | 248° |
| 2026-04-28 08:17 | 21.75271 | 112.28393 | 25368 ft | 371 kts | 248° |
| 2026-04-28 08:17 | 21.74261 | 112.25850 | 25372 ft | 371 kts | 248° |
| 2026-04-28 08:18 | 21.73249 | 112.23304 | 25370 ft | 371 kts | 248° |
| 2026-04-28 08:18 | 21.72236 | 112.20760 | 25370 ft | 371 kts | 248° |
| 2026-04-28 08:18 | 21.71224 | 112.18223 | 25368 ft | 371 kts | 248° |
| 2026-04-28 08:18 | 21.70204 | 112.15667 | 25362 ft | 371 kts | 248° |
| 2026-04-28 08:19 | 21.69194 | 112.13136 | 25360 ft | 371 kts | 248° |
| 2026-04-28 08:19 | 21.68180 | 112.10596 | 25356 ft | 371 kts | 248° |
| 2026-04-28 08:19 | 21.67166 | 112.08058 | 25353 ft | 371 kts | 248° |
| 2026-04-28 08:19 | 21.66150 | 112.05519 | 25347 ft | 371 kts | 248° |
| 2026-04-28 08:20 | 21.65137 | 112.02984 | 25346 ft | 371 kts | 248° |
| 2026-04-28 08:20 | 21.64121 | 112.00450 | 25347 ft | 370 kts | 248° |
| 2026-04-28 08:20 | 21.63100 | 111.97897 | 25351 ft | 370 kts | 248° |
| 2026-04-28 08:20 | 21.62086 | 111.95369 | 25349 ft | 370 kts | 248° |
| 2026-04-28 08:21 | 21.61071 | 111.92842 | 25353 ft | 370 kts | 248° |
| 2026-04-28 08:21 | 21.60057 | 111.90315 | 25353 ft | 370 kts | 248° |
| 2026-04-28 08:21 | 21.59040 | 111.87781 | 25355 ft | 370 kts | 248° |
| 2026-04-28 08:21 | 21.57988 | 111.85272 | 25353 ft | 370 kts | 245° |
| 2026-04-28 08:22 | 21.56730 | 111.82862 | 25356 ft | 372 kts | 240° |
| 2026-04-28 08:22 | 21.55242 | 111.80563 | 25353 ft | 374 kts | 235° |
| 2026-04-28 08:22 | 21.53593 | 111.78403 | 25354 ft | 375 kts | 233° |
| 2026-04-28 08:22 | 21.51912 | 111.76270 | 25353 ft | 375 kts | 233° |
| 2026-04-28 08:23 | 21.50227 | 111.74142 | 25354 ft | 375 kts | 233° |
| 2026-04-28 08:23 | 21.48539 | 111.72015 | 25354 ft | 375 kts | 233° |
| 2026-04-28 08:23 | 21.46855 | 111.69890 | 25354 ft | 375 kts | 233° |
| 2026-04-28 08:23 | 21.45162 | 111.67751 | 25358 ft | 382 kts | 233° |
| 2026-04-28 08:24 | 21.43421 | 111.65550 | 25354 ft | 387 kts | 232° |
| 2026-04-28 08:24 | 21.41669 | 111.63341 | 25355 ft | 388 kts | 232° |
| 2026-04-28 08:24 | 21.39926 | 111.61144 | 25353 ft | 388 kts | 233° |
| 2026-04-28 08:24 | 21.38181 | 111.58948 | 25351 ft | 388 kts | 232° |
| 2026-04-28 08:25 | 21.36438 | 111.56751 | 25353 ft | 388 kts | 233° |
| 2026-04-28 08:25 | 21.34691 | 111.54551 | 25351 ft | 388 kts | 233° |
| 2026-04-28 08:25 | 21.32946 | 111.52354 | 25354 ft | 389 kts | 233° |
| 2026-04-28 08:26 | 21.29436 | 111.47937 | 25350 ft | 388 kts | 233° |
| 2026-04-28 08:26 | 21.27686 | 111.45736 | 25350 ft | 389 kts | 233° |
| 2026-04-28 08:26 | 21.25938 | 111.43538 | 25349 ft | 389 kts | 233° |
| 2026-04-28 08:26 | 21.24185 | 111.41336 | 25345 ft | 389 kts | 233° |
| 2026-04-28 08:27 | 21.22434 | 111.39138 | 25347 ft | 389 kts | 233° |
| 2026-04-28 08:27 | 21.20679 | 111.36934 | 25347 ft | 390 kts | 233° |
| 2026-04-28 08:27 | 21.18915 | 111.34719 | 25347 ft | 389 kts | 232° |
| 2026-04-28 08:27 | 21.17168 | 111.32518 | 25343 ft | 389 kts | 232° |
| 2026-04-28 08:28 | 21.15419 | 111.30313 | 25346 ft | 389 kts | 232° |
| 2026-04-28 08:28 | 21.13670 | 111.28110 | 25344 ft | 389 kts | 232° |
| 2026-04-28 08:28 | 21.11923 | 111.25916 | 25340 ft | 388 kts | 232° |
| 2026-04-28 08:28 | 21.10172 | 111.23722 | 25340 ft | 389 kts | 232° |
| 2026-04-28 08:29 | 21.08417 | 111.21523 | 25340 ft | 389 kts | 232° |
| 2026-04-28 08:29 | 21.06652 | 111.19314 | 25337 ft | 388 kts | 233° |
| 2026-04-28 08:29 | 21.04899 | 111.17122 | 25334 ft | 389 kts | 232° |
| 2026-04-28 08:29 | 21.03138 | 111.14918 | 25330 ft | 389 kts | 232° |
| 2026-04-28 08:30 | 21.01382 | 111.12723 | 25324 ft | 389 kts | 232° |
| 2026-04-28 08:30 | 20.99627 | 111.10529 | 25321 ft | 389 kts | 232° |
| 2026-04-28 08:30 | 20.98165 | 111.08704 | 25318 ft | 389 kts | 232° |
| 2026-04-28 08:30 | 20.96644 | 111.06804 | 25319 ft | 389 kts | 232° |
| 2026-04-28 08:31 | 20.94872 | 111.04592 | 25318 ft | 389 kts | 232° |
| 2026-04-28 08:31 | 20.93115 | 111.02399 | 25319 ft | 390 kts | 232° |
| 2026-04-28 08:31 | 20.91354 | 111.00204 | 25320 ft | 390 kts | 232° |
| 2026-04-28 08:31 | 20.89592 | 110.98009 | 25319 ft | 389 kts | 232° |
| 2026-04-28 08:32 | 20.87823 | 110.95821 | 25317 ft | 390 kts | 232° |
| 2026-04-28 08:32 | 20.86055 | 110.93634 | 25315 ft | 390 kts | 232° |
| 2026-04-28 08:32 | 20.84287 | 110.91445 | 25318 ft | 390 kts | 232° |
| 2026-04-28 08:32 | 20.82508 | 110.89238 | 25315 ft | 390 kts | 232° |
| 2026-04-28 08:33 | 20.80738 | 110.87041 | 25317 ft | 391 kts | 232° |
| 2026-04-28 08:33 | 20.78971 | 110.84846 | 25318 ft | 390 kts | 232° |
| 2026-04-28 08:33 | 20.77208 | 110.82657 | 25313 ft | 390 kts | 232° |
| 2026-04-28 08:33 | 20.75439 | 110.80460 | 25312 ft | 391 kts | 232° |
| 2026-04-28 08:34 | 20.73675 | 110.78267 | 25315 ft | 391 kts | 232° |
| 2026-04-28 08:34 | 20.71909 | 110.76076 | 25313 ft | 390 kts | 232° |
| 2026-04-28 08:34 | 20.70127 | 110.73863 | 25314 ft | 391 kts | 232° |
| 2026-04-28 08:34 | 20.68359 | 110.71669 | 25313 ft | 391 kts | 232° |
| 2026-04-28 08:35 | 20.66591 | 110.69476 | 25314 ft | 391 kts | 232° |
| 2026-04-28 08:35 | 20.64826 | 110.67287 | 25312 ft | 391 kts | 232° |
| 2026-04-28 08:35 | 20.63056 | 110.65093 | 25317 ft | 390 kts | 232° |
| 2026-04-28 08:35 | 20.61291 | 110.62906 | 25317 ft | 390 kts | 232° |
| 2026-04-28 08:36 | 20.59523 | 110.60717 | 25314 ft | 391 kts | 232° |
| 2026-04-28 08:36 | 20.57745 | 110.58515 | 25314 ft | 390 kts | 232° |
| 2026-04-28 08:36 | 20.55976 | 110.56326 | 25316 ft | 390 kts | 232° |
| 2026-04-28 08:36 | 20.54209 | 110.54139 | 25316 ft | 390 kts | 232° |
| 2026-04-28 08:37 | 20.52418 | 110.51968 | 25314 ft | 392 kts | 230° |
| 2026-04-28 08:37 | 20.50477 | 110.49932 | 25312 ft | 393 kts | 226° |
| 2026-04-28 08:37 | 20.48378 | 110.48068 | 25313 ft | 394 kts | 221° |
| 2026-04-28 08:37 | 20.46150 | 110.46365 | 25318 ft | 395 kts | 219° |
| 2026-04-28 08:38 | 20.43872 | 110.44687 | 25321 ft | 396 kts | 219° |
| 2026-04-28 08:38 | 20.41605 | 110.43026 | 25325 ft | 396 kts | 219° |
| 2026-04-28 08:38 | 20.39333 | 110.41363 | 25326 ft | 397 kts | 218° |
| 2026-04-28 08:38 | 20.37066 | 110.39703 | 25328 ft | 397 kts | 218° |
| 2026-04-28 08:39 | 20.34793 | 110.38041 | 25328 ft | 397 kts | 218° |
| 2026-04-28 08:39 | 20.32522 | 110.36379 | 25325 ft | 397 kts | 218° |
| 2026-04-28 08:39 | 20.30258 | 110.34721 | 25324 ft | 396 kts | 218° |
| 2026-04-28 08:39 | 20.27983 | 110.33045 | 25323 ft | 396 kts | 218° |
| 2026-04-28 08:40 | 20.25722 | 110.31379 | 25322 ft | 396 kts | 218° |
| 2026-04-28 08:40 | 20.23458 | 110.29716 | 25322 ft | 396 kts | 218° |
| 2026-04-28 08:40 | 20.21198 | 110.28061 | 25323 ft | 395 kts | 218° |
| 2026-04-28 08:40 | 20.18934 | 110.26405 | 25322 ft | 396 kts | 218° |
| 2026-04-28 08:41 | 20.16671 | 110.24752 | 25332 ft | 396 kts | 218° |
| 2026-04-28 08:41 | 20.14405 | 110.23098 | 25338 ft | 395 kts | 218° |
| 2026-04-28 08:41 | 20.12127 | 110.21437 | 25340 ft | 395 kts | 218° |
| 2026-04-28 08:41 | 20.09860 | 110.19784 | 25342 ft | 396 kts | 218° |
| 2026-04-28 08:42 | 20.07589 | 110.18130 | 25341 ft | 395 kts | 218° |
| 2026-04-28 08:42 | 20.05326 | 110.16479 | 25342 ft | 395 kts | 218° |
| 2026-04-28 08:42 | 20.03025 | 110.14877 | 25343 ft | 397 kts | 216° |
| 2026-04-28 08:42 | 20.00638 | 110.13409 | 25343 ft | 397 kts | 212° |
| 2026-04-28 08:43 | 19.98163 | 110.12079 | 25344 ft | 399 kts | 209° |
| 2026-04-28 08:43 | 19.95629 | 110.10844 | 25341 ft | 399 kts | 209° |
| 2026-04-28 08:43 | 19.93102 | 110.09622 | 25265 ft | 400 kts | 209° |
| 2026-04-28 08:43 | 19.90575 | 110.08402 | 24629 ft | 401 kts | 208° |
| 2026-04-28 08:44 | 19.88060 | 110.07192 | 23876 ft | 396 kts | 208° |
| 2026-04-28 08:44 | 19.85579 | 110.06005 | 23130 ft | 389 kts | 208° |
| 2026-04-28 08:44 | 19.83153 | 110.04846 | 22393 ft | 379 kts | 208° |
| 2026-04-28 08:44 | 19.80783 | 110.03712 | 21694 ft | 372 kts | 208° |
| 2026-04-28 08:45 | 19.78433 | 110.02584 | 20982 ft | 368 kts | 208° |
| 2026-04-28 08:45 | 19.76124 | 110.01474 | 20281 ft | 364 kts | 208° |
| 2026-04-28 08:45 | 19.73838 | 110.00375 | 19568 ft | 360 kts | 208° |
| 2026-04-28 08:45 | 19.71577 | 109.99288 | 18868 ft | 357 kts | 208° |
| 2026-04-28 08:46 | 19.69337 | 109.98210 | 18222 ft | 352 kts | 208° |
| 2026-04-28 08:46 | 19.67135 | 109.97154 | 17628 ft | 345 kts | 208° |
| 2026-04-28 08:46 | 19.64971 | 109.96116 | 17048 ft | 340 kts | 208° |
| 2026-04-28 08:46 | 19.62827 | 109.95085 | 16484 ft | 333 kts | 208° |
| 2026-04-28 08:47 | 19.60729 | 109.94075 | 16204 ft | 331 kts | 208° |
| 2026-04-28 08:47 | 19.58631 | 109.93067 | 16152 ft | 331 kts | 208° |
| 2026-04-28 08:47 | 19.56529 | 109.92058 | 16150 ft | 332 kts | 208° |
| 2026-04-28 08:47 | 19.54422 | 109.91046 | 16148 ft | 333 kts | 208° |
| 2026-04-28 08:48 | 19.52305 | 109.90029 | 16145 ft | 334 kts | 208° |
| 2026-04-28 08:48 | 19.50192 | 109.89015 | 16141 ft | 333 kts | 208° |
| 2026-04-28 08:48 | 19.48066 | 109.87996 | 16153 ft | 333 kts | 208° |
| 2026-04-28 08:48 | 19.45949 | 109.86982 | 16151 ft | 334 kts | 208° |
| 2026-04-28 08:49 | 19.43835 | 109.85968 | 16149 ft | 334 kts | 208° |
| 2026-04-28 08:49 | 19.41724 | 109.84958 | 16144 ft | 333 kts | 208° |
| 2026-04-28 08:49 | 19.39606 | 109.83943 | 16151 ft | 334 kts | 207° |
| 2026-04-28 08:49 | 19.37490 | 109.82930 | 16152 ft | 334 kts | 208° |
| 2026-04-28 08:50 | 19.35373 | 109.81918 | 16146 ft | 333 kts | 208° |
| 2026-04-28 08:50 | 19.33246 | 109.80900 | 16159 ft | 333 kts | 208° |
| 2026-04-28 08:50 | 19.31130 | 109.79888 | 16164 ft | 334 kts | 208° |
| 2026-04-28 08:50 | 19.29028 | 109.78854 | 16160 ft | 332 kts | 212° |
| 2026-04-28 08:51 | 19.27271 | 109.77327 | 16137 ft | 325 kts | 233° |
| 2026-04-28 08:51 | 19.26141 | 109.75276 | 16153 ft | 325 kts | 246° |
| 2026-04-28 08:51 | 19.25233 | 109.73096 | 16156 ft | 325 kts | 248° |
| 2026-04-28 08:51 | 19.24358 | 109.70901 | 16165 ft | 325 kts | 248° |
| 2026-04-28 08:52 | 19.23478 | 109.68682 | 16166 ft | 325 kts | 248° |
| 2026-04-28 08:52 | 19.22605 | 109.66481 | 16168 ft | 326 kts | 248° |
| 2026-04-28 08:52 | 19.21732 | 109.64275 | 16170 ft | 326 kts | 248° |
| 2026-04-28 08:52 | 19.20863 | 109.62071 | 16179 ft | 326 kts | 248° |
| 2026-04-28 08:53 | 19.19996 | 109.59862 | 16196 ft | 326 kts | 248° |
| 2026-04-28 08:53 | 19.19133 | 109.57660 | 16207 ft | 325 kts | 248° |
| 2026-04-28 08:53 | 19.18268 | 109.55455 | 16202 ft | 325 kts | 248° |
| 2026-04-28 08:53 | 19.17400 | 109.53232 | 16208 ft | 326 kts | 248° |
| 2026-04-28 08:54 | 19.16535 | 109.51021 | 16209 ft | 326 kts | 248° |
| 2026-04-28 08:54 | 19.15666 | 109.48795 | 16212 ft | 327 kts | 248° |
| 2026-04-28 08:54 | 19.14800 | 109.46579 | 16213 ft | 327 kts | 248° |
| 2026-04-28 08:54 | 19.13931 | 109.44360 | 16226 ft | 327 kts | 248° |
| 2026-04-28 08:55 | 19.13064 | 109.42147 | 16230 ft | 327 kts | 248° |
| 2026-04-28 08:55 | 19.12195 | 109.39937 | 16241 ft | 327 kts | 248° |
| 2026-04-28 08:55 | 19.11318 | 109.37706 | 16242 ft | 327 kts | 248° |
| 2026-04-28 08:55 | 19.10447 | 109.35488 | 16240 ft | 328 kts | 248° |
| 2026-04-28 08:56 | 19.09572 | 109.33268 | 16239 ft | 328 kts | 248° |
| 2026-04-28 08:56 | 19.08698 | 109.31049 | 16237 ft | 328 kts | 248° |
| 2026-04-28 08:56 | 19.07827 | 109.28829 | 16243 ft | 328 kts | 248° |
| 2026-04-28 08:56 | 19.06960 | 109.26604 | 16247 ft | 328 kts | 248° |
| 2026-04-28 08:57 | 19.06095 | 109.24383 | 16238 ft | 328 kts | 248° |
| 2026-04-28 08:57 | 19.05226 | 109.22146 | 16229 ft | 328 kts | 248° |
| 2026-04-28 08:57 | 19.04366 | 109.19921 | 16220 ft | 328 kts | 248° |
| 2026-04-28 08:57 | 19.03506 | 109.17696 | 16207 ft | 328 kts | 248° |
| 2026-04-28 08:58 | 19.02644 | 109.15471 | 16203 ft | 328 kts | 248° |
| 2026-04-28 08:58 | 19.01783 | 109.13250 | 16189 ft | 328 kts | 248° |
| 2026-04-28 08:58 | 19.00919 | 109.11025 | 16172 ft | 329 kts | 248° |
| 2026-04-28 08:58 | 19.00049 | 109.08792 | 16159 ft | 330 kts | 248° |
| 2026-04-28 08:59 | 18.99169 | 109.06538 | 16144 ft | 331 kts | 248° |
| 2026-04-28 08:59 | 18.98294 | 109.04298 | 16139 ft | 331 kts | 248° |
| 2026-04-28 08:59 | 18.97420 | 109.02057 | 16139 ft | 331 kts | 248° |
| 2026-04-28 08:59 | 18.96549 | 108.99817 | 16131 ft | 330 kts | 248° |
| 2026-04-28 09:00 | 18.95683 | 108.97583 | 16152 ft | 329 kts | 248° |
| 2026-04-28 09:00 | 18.94823 | 108.95355 | 16131 ft | 329 kts | 248° |
| 2026-04-28 09:00 | 18.93964 | 108.93127 | 16106 ft | 329 kts | 249° |
| 2026-04-28 09:00 | 18.93096 | 108.90881 | 16115 ft | 329 kts | 248° |
| 2026-04-28 09:01 | 18.92236 | 108.88651 | 16137 ft | 329 kts | 248° |
| 2026-04-28 09:01 | 18.91374 | 108.86423 | 16113 ft | 329 kts | 249° |
| 2026-04-28 09:01 | 18.90511 | 108.84196 | 16126 ft | 329 kts | 248° |
| 2026-04-28 09:01 | 18.89938 | 108.82717 | 16110 ft | 328 kts | 248° |
| 2026-04-28 09:02 | 18.88773 | 108.79741 | 16143 ft | 330 kts | 248° |
| 2026-04-28 09:02 | 18.87895 | 108.77519 | 16148 ft | 329 kts | 248° |
| 2026-04-28 09:02 | 18.87012 | 108.75278 | 16128 ft | 329 kts | 248° |
| 2026-04-28 09:02 | 18.86140 | 108.73057 | 16107 ft | 328 kts | 248° |
| 2026-04-28 09:03 | 18.85261 | 108.70840 | 16136 ft | 328 kts | 246° |
| 2026-04-28 09:03 | 18.83997 | 108.68852 | 16106 ft | 330 kts | 226° |
| 2026-04-28 09:03 | 18.82069 | 108.67523 | 16114 ft | 336 kts | 204° |
| 2026-04-28 09:03 | 18.79759 | 108.67061 | 16126 ft | 343 kts | 185° |
| 2026-04-28 09:04 | 18.77363 | 108.67165 | 16126 ft | 345 kts | 179° |
| 2026-04-28 09:04 | 18.74951 | 108.67383 | 16141 ft | 346 kts | 178° |
| 2026-04-28 09:04 | 18.72555 | 108.67622 | 16136 ft | 346 kts | 178° |
| 2026-04-28 09:04 | 18.70158 | 108.67860 | 16137 ft | 346 kts | 178° |
| 2026-04-28 09:05 | 18.67763 | 108.68096 | 16131 ft | 345 kts | 178° |
| 2026-04-28 09:05 | 18.65369 | 108.68336 | 16110 ft | 345 kts | 178° |
| 2026-04-28 09:05 | 18.62974 | 108.68576 | 16131 ft | 346 kts | 178° |
| 2026-04-28 09:05 | 18.60577 | 108.68813 | 16135 ft | 346 kts | 178° |
| 2026-04-28 09:06 | 18.58170 | 108.69051 | 16126 ft | 345 kts | 178° |
| 2026-04-28 09:06 | 18.55774 | 108.69317 | 16106 ft | 347 kts | 174° |
| 2026-04-28 09:06 | 18.53516 | 108.70238 | 16105 ft | 356 kts | 149° |
| 2026-04-28 09:06 | 18.51627 | 108.71949 | 16112 ft | 361 kts | 139° |
| 2026-04-28 09:07 | 18.49841 | 108.73800 | 16100 ft | 361 kts | 139° |
| 2026-04-28 09:07 | 18.48050 | 108.75649 | 16092 ft | 361 kts | 139° |
| 2026-04-28 09:07 | 18.46240 | 108.77473 | 16084 ft | 360 kts | 140° |
| 2026-04-28 09:07 | 18.44397 | 108.79292 | 16094 ft | 361 kts | 140° |
| 2026-04-28 09:08 | 18.42558 | 108.81085 | 16102 ft | 361 kts | 140° |
| 2026-04-28 09:08 | 18.40717 | 108.82867 | 16115 ft | 360 kts | 140° |
| 2026-04-28 09:08 | 18.38869 | 108.84647 | 16086 ft | 360 kts | 140° |
| 2026-04-28 09:08 | 18.37023 | 108.86421 | 16114 ft | 360 kts | 141° |
| 2026-04-28 09:09 | 18.35175 | 108.88196 | 16001 ft | 361 kts | 141° |
| 2026-04-28 09:09 | 18.33326 | 108.89970 | 15505 ft | 360 kts | 141° |
| 2026-04-28 09:09 | 18.31465 | 108.91754 | 14821 ft | 361 kts | 141° |
| 2026-04-28 09:09 | 18.29641 | 108.93505 | 14115 ft | 353 kts | 141° |
| 2026-04-28 09:10 | 18.27859 | 108.95215 | 13405 ft | 344 kts | 141° |
| 2026-04-28 09:10 | 18.26153 | 108.96854 | 13168 ft | 320 kts | 141° |
| 2026-04-28 09:10 | 18.24526 | 108.98418 | 13111 ft | 317 kts | 141° |
| 2026-04-28 09:10 | 18.22904 | 108.99968 | 12443 ft | 315 kts | 140° |
| 2026-04-28 09:11 | 18.21292 | 109.01507 | 11707 ft | 312 kts | 140° |
| 2026-04-28 09:11 | 18.19693 | 109.03036 | 10982 ft | 309 kts | 140° |
| 2026-04-28 09:11 | 18.18119 | 109.04543 | 10278 ft | 306 kts | 139° |
| 2026-04-28 09:11 | 18.16805 | 109.06277 | 9587 ft | 306 kts | 118° |
| 2026-04-28 09:12 | 18.16148 | 109.08355 | 9084 ft | 301 kts | 99° |
| 2026-04-28 09:12 | 18.16143 | 109.10534 | 8615 ft | 300 kts | 82° |
| 2026-04-28 09:12 | 18.16493 | 109.12686 | 8130 ft | 299 kts | 79° |
| 2026-04-28 09:12 | 18.16884 | 109.14816 | 7810 ft | 297 kts | 79° |
| 2026-04-28 09:13 | 18.17027 | 109.16985 | 7808 ft | 298 kts | 99° |
| 2026-04-28 09:13 | 18.16332 | 109.19000 | 7837 ft | 294 kts | 125° |
| 2026-04-28 09:13 | 18.14900 | 109.20477 | 7834 ft | 289 kts | 151° |
| 2026-04-28 09:13 | 18.13092 | 109.21381 | 7834 ft | 287 kts | 160° |
| 2026-04-28 09:14 | 18.11222 | 109.22121 | 7847 ft | 286 kts | 166° |
| 2026-04-28 09:14 | 18.09283 | 109.22233 | 7818 ft | 278 kts | 197° |
| 2026-04-28 09:14 | 18.07614 | 109.21288 | 7820 ft | 274 kts | 224° |
| 2026-04-28 09:14 | 18.06484 | 109.19685 | 7656 ft | 272 kts | 247° |
| 2026-04-28 09:15 | 18.06076 | 109.17769 | 7440 ft | 271 kts | 269° |
| 2026-04-28 09:15 | 18.06438 | 109.15847 | 7164 ft | 272 kts | 292° |
| 2026-04-28 09:15 | 18.07523 | 109.14247 | 6884 ft | 270 kts | 316° |
| 2026-04-28 09:15 | 18.09113 | 109.13221 | 6618 ft | 269 kts | 332° |
| 2026-04-28 09:16 | 18.10804 | 109.12444 | 6382 ft | 264 kts | 334° |
| 2026-04-28 09:16 | 18.12478 | 109.11690 | 6099 ft | 259 kts | 334° |
| 2026-04-28 09:16 | 18.14132 | 109.10941 | 5814 ft | 255 kts | 334° |
| 2026-04-28 09:16 | 18.15747 | 109.10204 | 5550 ft | 251 kts | 334° |
| 2026-04-28 09:17 | 18.17336 | 109.09474 | 5293 ft | 247 kts | 334° |
| 2026-04-28 09:17 | 18.18874 | 109.08765 | 5039 ft | 243 kts | 334° |
| 2026-04-28 09:17 | 18.20435 | 109.08046 | 4776 ft | 239 kts | 334° |
| 2026-04-28 09:17 | 18.21948 | 109.07347 | 4486 ft | 238 kts | 334° |
| 2026-04-28 09:18 | 18.23535 | 109.06857 | 4106 ft | 242 kts | 359° |
| 2026-04-28 09:18 | 18.25104 | 109.07377 | 3777 ft | 231 kts | 39° |
| 2026-04-28 09:18 | 18.26027 | 109.08622 | 3728 ft | 206 kts | 72° |
| 2026-04-28 09:18 | 18.26309 | 109.10032 | 3823 ft | 197 kts | 86° |
| 2026-04-28 09:19 | 18.26460 | 109.11466 | 3717 ft | 198 kts | 86° |
| 2026-04-28 09:19 | 18.26613 | 109.12891 | 3450 ft | 196 kts | 86° |
| 2026-04-28 09:19 | 18.26777 | 109.14298 | 3195 ft | 193 kts | 86° |
| 2026-04-28 09:19 | 18.26952 | 109.15686 | 2935 ft | 192 kts | 86° |
| 2026-04-28 09:20 | 18.27128 | 109.17071 | 2709 ft | 190 kts | 86° |
| 2026-04-28 09:20 | 18.27306 | 109.18438 | 2608 ft | 189 kts | 86° |
| 2026-04-28 09:20 | 18.27494 | 109.19800 | 2509 ft | 188 kts | 85° |
| 2026-04-28 09:20 | 18.27693 | 109.21154 | 2418 ft | 188 kts | 85° |
| 2026-04-28 09:21 | 18.27883 | 109.22507 | 2324 ft | 187 kts | 86° |
| 2026-04-28 09:21 | 18.28064 | 109.23856 | 2232 ft | 187 kts | 86° |
| 2026-04-28 09:21 | 18.28238 | 109.25192 | 2126 ft | 179 kts | 86° |
| 2026-04-28 09:21 | 18.28398 | 109.26425 | 2055 ft | 164 kts | 87° |
| 2026-04-28 09:22 | 18.28548 | 109.27607 | 2056 ft | 163 kts | 88° |
| 2026-04-28 09:22 | 18.28696 | 109.28791 | 1994 ft | 164 kts | 88° |
| 2026-04-28 09:22 | 18.28847 | 109.29969 | 1805 ft | 163 kts | 88° |
| 2026-04-28 09:22 | 18.28998 | 109.31143 | 1596 ft | 162 kts | 87° |
| 2026-04-28 09:23 | 18.29147 | 109.32308 | 1395 ft | 160 kts | 86° |
| 2026-04-28 09:23 | 18.29292 | 109.33426 | 1164 ft | 147 kts | 86° |
| 2026-04-28 09:23 | 18.29425 | 109.34461 | 970 ft | 141 kts | 85° |
| 2026-04-28 09:23 | 18.29553 | 109.35473 | 804 ft | 139 kts | 84° |
| 2026-04-28 09:24 | 18.29681 | 109.36476 | 635 ft | 139 kts | 84° |
| 2026-04-28 09:24 | 18.29810 | 109.37481 | 462 ft | 139 kts | 83° |
| 2026-04-28 09:24 | 18.29939 | 109.38482 | 287 ft | 138 kts | 82° |
| 2026-04-28 09:24 | 18.30068 | 109.39480 | 114 ft | 138 kts | 82° |
| 2026-04-28 09:25 | 18.30186 | 109.40386 | 59 ft | 93 kts | 81° |
| 2026-04-28 09:25 | 18.30232 | 109.40742 | 65 ft | 8 kts | 82° |
| 2026-04-28 09:25 | 18.30239 | 109.40800 | 66 ft | 8 kts | 82° |
| 2026-04-28 09:25 | 18.30247 | 109.40862 | 67 ft | 12 kts | 82° |
| 2026-04-28 09:26 | 18.30261 | 109.40961 | 68 ft | 14 kts | 82° |
| 2026-04-28 09:26 | 18.30274 | 109.41057 | 70 ft | 13 kts | 82° |
| 2026-04-28 09:26 | 18.30286 | 109.41150 | 72 ft | 14 kts | 82° |
| 2026-04-28 09:26 | 18.30297 | 109.41249 | 74 ft | 13 kts | 84° |
| 2026-04-28 09:27 | 18.30386 | 109.41307 | 77 ft | 0 kts | 358° |